createdAt,value
2019-03-15T00:01:36.901Z,1.98
2019-03-15T00:04:04.260Z,2.00
2019-03-15T00:06:31.532Z,1.80
2019-03-15T00:08:58.806Z,1.70
2019-03-15T00:11:26.078Z,2.22
2019-03-15T00:13:53.380Z,2.12
2019-03-15T00:16:20.648Z,2.40
2019-03-15T00:18:47.927Z,2.00
2019-03-15T00:21:15.217Z,1.75
2019-03-15T00:23:42.496Z,1.50
2019-03-15T00:26:09.768Z,1.82
2019-03-15T00:28:37.080Z,1.90
2019-03-15T00:31:04.460Z,1.22
2019-03-15T00:33:31.730Z,1.40
2019-03-15T00:35:59.217Z,1.72
2019-03-15T00:38:26.542Z,2.10
2019-03-15T00:40:54.089Z,2.50
2019-03-15T00:43:21.359Z,1.45
2019-03-15T00:45:48.637Z,2.22
2019-03-15T00:48:15.911Z,1.70
2019-03-15T00:50:43.269Z,1.85
2019-03-15T00:53:10.587Z,1.92
2019-03-15T00:55:37.928Z,1.57
2019-03-15T00:58:05.267Z,1.65
2019-03-15T01:00:32.525Z,1.80
2019-03-15T01:02:59.817Z,1.30
2019-03-15T01:05:27.122Z,1.60
2019-03-15T01:07:54.399Z,2.00
2019-03-15T01:10:21.780Z,1.80
2019-03-15T01:12:49.163Z,1.65
2019-03-15T01:15:16.501Z,1.62
2019-03-15T01:17:43.783Z,1.45
2019-03-15T01:20:11.050Z,1.67
2019-03-15T01:22:38.342Z,1.90
2019-03-15T01:25:07.166Z,1.30
2019-03-15T01:27:34.507Z,2.22
2019-03-15T01:30:01.875Z,2.35
2019-03-15T01:32:29.173Z,2.10
2019-03-15T01:34:56.466Z,2.25
2019-03-15T01:37:23.771Z,2.20
2019-03-15T01:39:51.390Z,2.02
2019-03-15T01:42:18.676Z,1.77
2019-03-15T01:44:45.965Z,1.98
2019-03-15T01:47:13.238Z,2.05
2019-03-15T01:49:40.502Z,2.90
2019-03-15T01:52:07.794Z,3.02
2019-03-15T01:54:35.239Z,2.17
2019-03-15T01:57:02.589Z,2.45
2019-03-15T01:59:29.874Z,2.90
2019-03-15T02:01:57.136Z,1.52
2019-03-15T02:04:24.613Z,1.98
2019-03-15T02:06:51.870Z,1.65
2019-03-15T02:09:19.137Z,1.50
2019-03-15T02:11:46.430Z,1.82
2019-03-15T02:14:13.714Z,1.50
2019-03-15T02:16:41.066Z,2.58
2019-03-15T02:19:08.334Z,2.30
2019-03-15T02:21:35.627Z,1.82
2019-03-15T02:24:02.900Z,1.55
2019-03-15T02:26:30.250Z,1.75
2019-03-15T02:28:57.518Z,1.50
2019-03-15T02:31:24.850Z,1.35
2019-03-15T02:33:52.451Z,2.08
2019-03-15T02:36:19.806Z,2.60
2019-03-15T02:38:47.067Z,1.65
2019-03-15T02:41:14.348Z,1.95
2019-03-15T02:43:41.632Z,2.30
2019-03-15T02:46:08.942Z,1.10
2019-03-15T02:48:36.251Z,2.47
2019-03-15T02:51:03.559Z,2.30
2019-03-15T02:53:30.826Z,2.55
2019-03-15T02:55:58.121Z,1.90
2019-03-15T02:58:25.481Z,2.37
2019-03-15T03:00:52.933Z,2.55
2019-03-15T03:03:20.709Z,2.58
2019-03-15T03:05:48.362Z,2.15
2019-03-15T03:08:15.628Z,1.55
2019-03-15T03:10:42.907Z,2.85
2019-03-15T03:13:10.714Z,1.90
2019-03-15T03:15:38.454Z,2.55
2019-03-15T03:18:07.235Z,2.02
2019-03-15T03:20:34.877Z,2.85
2019-03-15T03:23:02.321Z,2.62
2019-03-15T03:25:30.099Z,2.67
2019-03-15T03:27:57.851Z,2.02
2019-03-15T03:30:25.135Z,1.92
2019-03-15T03:32:52.422Z,2.47
2019-03-15T03:35:19.707Z,2.75
2019-03-15T03:37:46.980Z,2.30
2019-03-15T03:40:14.254Z,2.52
2019-03-15T03:42:41.615Z,2.58
2019-03-15T03:45:09.283Z,1.98
2019-03-15T03:47:36.627Z,2.15
2019-03-15T03:50:05.070Z,2.15
2019-03-15T03:52:32.351Z,2.65
2019-03-15T03:55:00.154Z,2.87
2019-03-15T03:57:27.470Z,3.33
2019-03-15T03:59:54.742Z,2.90
2019-03-15T04:02:22.166Z,2.37
2019-03-15T04:04:49.432Z,3.02
2019-03-15T04:07:16.999Z,2.33
2019-03-15T04:09:46.340Z,2.15
2019-03-15T04:12:13.644Z,2.25
2019-03-15T04:14:41.015Z,1.62
2019-03-15T04:17:08.343Z,2.80
2019-03-15T04:19:35.636Z,2.72
2019-03-15T04:22:03.052Z,3.35
2019-03-15T04:24:30.318Z,4.50
2019-03-15T04:26:57.694Z,2.77
2019-03-15T04:29:25.056Z,2.72
2019-03-15T04:31:52.394Z,2.95
2019-03-15T04:34:19.683Z,2.72
2019-03-15T04:36:46.947Z,3.45
2019-03-15T04:39:14.261Z,2.55
2019-03-15T04:41:41.586Z,3.58
2019-03-15T04:44:08.855Z,3.15
2019-03-15T04:46:36.318Z,3.25
2019-03-15T04:49:03.593Z,2.60
2019-03-15T04:51:30.886Z,2.22
2019-03-15T04:53:58.150Z,3.05
2019-03-15T04:56:25.447Z,1.90
2019-03-15T04:58:52.737Z,2.25
2019-03-15T05:01:20.034Z,1.98
2019-03-15T05:03:47.288Z,2.92
2019-03-15T05:06:14.569Z,1.70
2019-03-15T05:08:41.850Z,1.70
2019-03-15T05:11:09.127Z,2.00
2019-03-15T05:13:36.424Z,1.60
2019-03-15T05:16:03.801Z,1.72
2019-03-15T05:18:31.090Z,1.77
2019-03-15T05:20:58.343Z,1.22
2019-03-15T05:23:25.642Z,1.60
2019-03-15T05:25:53.080Z,1.70
2019-03-15T05:28:20.351Z,1.92
2019-03-15T05:30:47.628Z,1.72
2019-03-15T05:33:14.891Z,2.10
2019-03-15T05:35:42.208Z,2.10
2019-03-15T05:38:09.638Z,2.50
2019-03-15T05:40:36.914Z,2.08
2019-03-15T05:43:04.203Z,2.00
2019-03-15T05:45:31.525Z,2.17
2019-03-15T05:47:58.814Z,2.55
2019-03-15T05:50:26.074Z,1.50
2019-03-15T05:52:53.360Z,1.50
2019-03-15T05:55:20.656Z,2.15
2019-03-15T05:57:47.970Z,2.05
2019-03-15T06:00:15.391Z,2.27
2019-03-15T06:02:42.712Z,1.45
2019-03-15T06:05:10.357Z,1.37
2019-03-15T06:07:37.634Z,1.75
2019-03-15T06:10:10.049Z,1.90
2019-03-15T06:12:37.405Z,1.72
2019-03-15T06:15:05.738Z,1.65
2019-03-15T06:17:33.034Z,2.00
2019-03-15T06:20:00.285Z,1.82
2019-03-15T06:22:27.580Z,1.47
2019-03-15T06:24:54.849Z,1.22
2019-03-15T06:27:22.245Z,1.90
2019-03-15T06:29:49.655Z,1.60
2019-03-15T06:32:17.018Z,2.08
2019-03-15T06:34:44.360Z,2.08
2019-03-15T06:37:11.609Z,1.52
2019-03-15T06:39:38.903Z,1.52
2019-03-15T06:42:06.239Z,1.62
2019-03-15T06:44:33.614Z,2.15
2019-03-15T06:47:00.870Z,1.30
2019-03-15T06:49:28.201Z,2.00
2019-03-15T06:51:55.451Z,2.95
2019-03-15T06:54:22.718Z,2.72
2019-03-15T06:56:50.006Z,3.58
2019-03-15T06:59:17.265Z,2.72
2019-03-15T07:01:44.555Z,3.80
2019-03-15T07:04:11.829Z,4.40
2019-03-15T07:06:39.151Z,4.22
2019-03-15T07:09:07.330Z,4.40
2019-03-15T07:11:35.074Z,3.75
2019-03-15T07:14:02.394Z,4.95
2019-03-15T07:16:29.683Z,4.58
2019-03-15T07:18:56.970Z,5.92
2019-03-15T07:21:24.253Z,4.80
2019-03-15T07:23:51.526Z,4.92
2019-03-15T07:26:18.794Z,5.25
2019-03-15T07:28:46.081Z,4.75
2019-03-15T07:31:13.345Z,5.28
2019-03-15T07:33:40.635Z,6.53
2019-03-15T07:36:07.934Z,6.10
2019-03-15T07:38:35.325Z,5.03
2019-03-15T07:41:02.711Z,5.25
2019-03-15T07:43:29.997Z,6.62
2019-03-15T07:45:57.282Z,5.22
2019-03-15T07:48:26.869Z,6.28
2019-03-15T07:50:53.748Z,5.53
2019-03-15T07:53:21.009Z,5.45
2019-03-15T07:55:48.316Z,6.45
2019-03-15T07:58:15.617Z,7.00
2019-03-15T08:00:42.886Z,5.87
2019-03-15T08:03:10.225Z,6.50
2019-03-15T08:05:38.223Z,6.95
2019-03-15T08:08:05.722Z,5.00
2019-03-15T08:10:32.973Z,4.92
2019-03-15T08:13:00.342Z,5.20
2019-03-15T08:15:27.730Z,4.25
2019-03-15T08:17:55.053Z,3.77
2019-03-15T08:20:22.337Z,4.40
2019-03-15T08:22:49.615Z,3.60
2019-03-15T08:25:16.944Z,3.50
2019-03-15T08:27:44.213Z,3.47
2019-03-15T08:30:12.780Z,2.20
2019-03-15T08:32:43.503Z,3.25
2019-03-15T08:35:09.410Z,3.62
2019-03-15T08:37:36.697Z,3.75
2019-03-15T08:40:05.530Z,2.90
2019-03-15T08:42:34.686Z,3.35
2019-03-15T08:45:02.186Z,3.15
2019-03-15T08:47:29.573Z,2.80
2019-03-15T08:49:56.842Z,3.40
2019-03-15T08:52:24.122Z,4.72
2019-03-15T08:55:04.238Z,3.55
2019-03-15T08:57:20.399Z,3.35
2019-03-15T08:59:54.163Z,3.20
2019-03-15T09:02:16.667Z,3.37
2019-03-15T09:04:43.963Z,3.30
2019-03-15T09:07:11.220Z,3.47
2019-03-15T09:09:38.507Z,3.62
2019-03-15T09:12:05.777Z,4.03
2019-03-15T09:14:33.140Z,3.27
2019-03-15T09:17:00.417Z,3.67
2019-03-15T09:19:27.698Z,3.80
2019-03-15T09:21:54.987Z,3.90
2019-03-15T09:24:22.255Z,4.60
2019-03-15T09:26:49.571Z,3.05
2019-03-15T09:29:16.844Z,4.12
2019-03-15T09:31:48.166Z,5.00
2019-03-15T09:34:13.122Z,4.03
2019-03-15T09:36:50.180Z,3.55
2019-03-15T09:39:09.422Z,4.33
2019-03-15T09:41:39.975Z,3.45
2019-03-15T09:44:05.722Z,3.30
2019-03-15T09:46:33.076Z,3.65
2019-03-15T09:49:00.421Z,3.85
2019-03-15T09:51:27.704Z,4.00
2019-03-15T09:53:54.971Z,3.77
2019-03-15T09:56:22.257Z,5.15
2019-03-15T09:58:49.530Z,3.12
2019-03-15T10:01:33.751Z,3.20
2019-03-15T10:03:45.810Z,3.22
2019-03-15T10:06:16.602Z,3.77
2019-03-15T10:08:42.078Z,3.20
2019-03-15T10:11:09.366Z,4.42
2019-03-15T10:13:36.730Z,3.50
2019-03-15T10:16:04.213Z,3.30
2019-03-15T10:18:31.543Z,3.52
2019-03-15T10:20:58.837Z,4.37
2019-03-15T10:23:26.174Z,3.87
2019-03-15T10:25:53.470Z,3.60
2019-03-15T10:28:20.743Z,4.30
2019-03-15T10:30:48.016Z,3.85
2019-03-15T10:33:15.320Z,3.30
2019-03-15T10:35:42.579Z,3.67
2019-03-15T10:38:09.861Z,3.95
2019-03-15T10:40:37.166Z,3.55
2019-03-15T10:43:04.491Z,3.12
2019-03-15T10:45:31.813Z,3.17
2019-03-15T10:47:59.094Z,4.03
2019-03-15T10:50:26.351Z,3.27
2019-03-15T10:52:54.064Z,3.92
2019-03-15T10:55:21.921Z,3.50
2019-03-15T10:57:49.234Z,2.98
2019-03-15T11:00:17.905Z,3.60
2019-03-15T11:02:45.189Z,3.25
2019-03-15T11:05:12.733Z,3.33
2019-03-15T11:07:40.024Z,4.35
2019-03-15T11:10:08.554Z,3.33
2019-03-15T11:12:35.836Z,3.65
2019-03-15T11:15:03.290Z,3.83
2019-03-15T11:17:30.675Z,3.72
2019-03-15T11:19:58.128Z,3.25
2019-03-15T11:22:25.404Z,3.15
2019-03-15T11:24:52.667Z,3.72
2019-03-15T11:27:19.947Z,4.00
2019-03-15T11:29:47.214Z,3.62
2019-03-15T11:32:14.568Z,4.12
2019-03-15T11:34:41.844Z,3.70
2019-03-15T11:37:09.128Z,3.75
2019-03-15T11:39:36.386Z,2.92
2019-03-15T11:42:03.691Z,3.12
2019-03-15T11:44:30.970Z,3.20
2019-03-15T11:46:58.332Z,3.98
2019-03-15T11:49:28.088Z,3.58
2019-03-15T11:51:54.602Z,3.02
2019-03-15T11:54:21.898Z,3.30
2019-03-15T11:56:50.799Z,3.22
2019-03-15T11:59:18.399Z,3.35
2019-03-15T12:01:45.670Z,3.05
2019-03-15T12:04:12.955Z,3.58
2019-03-15T12:06:40.223Z,3.52
2019-03-15T12:09:07.564Z,2.80
2019-03-15T12:11:34.836Z,2.90
2019-03-15T12:14:02.120Z,3.02
2019-03-15T12:16:29.453Z,3.15
2019-03-15T12:18:56.826Z,3.30
2019-03-15T12:21:24.097Z,3.20
2019-03-15T12:23:51.374Z,3.52
2019-03-15T12:26:18.686Z,2.45
2019-03-15T12:28:46.010Z,2.22
2019-03-15T12:31:13.293Z,2.50
2019-03-15T12:33:40.556Z,3.83
2019-03-15T12:36:07.854Z,2.67
2019-03-15T12:38:35.119Z,3.22
2019-03-15T12:41:02.393Z,3.22
2019-03-15T12:43:29.680Z,3.20
2019-03-15T12:45:56.992Z,3.37
2019-03-15T12:48:24.250Z,2.25
2019-03-15T12:50:51.513Z,2.20
2019-03-15T12:53:18.794Z,2.47
2019-03-15T12:55:46.066Z,2.83
2019-03-15T12:58:13.356Z,2.62
2019-03-15T13:00:40.712Z,2.87
2019-03-15T13:03:07.992Z,2.83
2019-03-15T13:05:35.278Z,2.75
2019-03-15T13:08:02.572Z,2.12
2019-03-15T13:10:29.898Z,3.05
2019-03-15T13:12:57.267Z,2.30
2019-03-15T13:15:24.542Z,3.45
2019-03-15T13:17:51.858Z,2.52
2019-03-15T13:20:19.190Z,3.08
2019-03-15T13:22:46.469Z,2.80
2019-03-15T13:25:13.773Z,2.50
2019-03-15T13:27:41.030Z,2.60
2019-03-15T13:30:14.365Z,2.47
2019-03-15T13:32:41.638Z,2.90
2019-03-15T13:35:09.087Z,2.67
2019-03-15T13:37:36.352Z,3.20
2019-03-15T13:40:05.503Z,2.27
2019-03-15T13:42:32.799Z,3.12
2019-03-15T13:45:00.105Z,2.77
2019-03-15T13:47:27.430Z,2.85
2019-03-15T13:49:54.719Z,2.85
2019-03-15T13:52:24.897Z,3.12
2019-03-15T13:54:52.190Z,2.70
2019-03-15T13:57:21.454Z,2.80
2019-03-15T13:59:48.465Z,3.17
2019-03-15T14:02:15.811Z,3.35
2019-03-15T14:04:43.086Z,4.00
2019-03-15T14:07:10.392Z,3.15
2019-03-15T14:09:37.658Z,4.05
2019-03-15T14:12:04.950Z,5.28
2019-03-15T14:14:32.309Z,4.40
2019-03-15T14:16:59.660Z,3.62
2019-03-15T14:19:26.901Z,3.50
2019-03-15T14:21:54.276Z,3.85
2019-03-15T14:24:22.864Z,2.92
2019-03-15T14:26:51.121Z,3.20
2019-03-15T14:29:18.538Z,3.33
2019-03-15T14:31:45.823Z,3.67
2019-03-15T14:34:13.175Z,3.30
2019-03-15T14:36:40.549Z,3.60
2019-03-15T14:39:08.079Z,5.45
2019-03-15T14:41:35.704Z,3.98
2019-03-15T14:44:03.078Z,5.15
2019-03-15T14:46:30.426Z,4.58
2019-03-15T14:48:57.689Z,4.85
2019-03-15T14:51:24.970Z,4.22
2019-03-15T14:53:52.247Z,4.65
2019-03-15T14:56:19.530Z,4.67
2019-03-15T14:58:46.894Z,4.75
2019-03-15T15:01:14.188Z,4.00
2019-03-15T15:03:41.466Z,4.20
2019-03-15T15:06:08.763Z,4.87
2019-03-15T15:08:36.039Z,3.35
2019-03-15T15:11:03.453Z,4.12
2019-03-15T15:13:30.753Z,4.72
2019-03-15T15:15:58.043Z,4.83
2019-03-15T15:18:25.321Z,4.08
2019-03-15T15:20:52.638Z,5.17
2019-03-15T15:23:19.973Z,5.40
2019-03-15T15:25:47.239Z,4.65
2019-03-15T15:28:14.493Z,5.65
2019-03-15T15:30:41.776Z,5.65
2019-03-15T15:33:09.065Z,5.80
2019-03-15T15:35:36.349Z,4.70
2019-03-15T15:38:03.709Z,4.47
2019-03-15T15:40:30.986Z,4.70
2019-03-15T15:42:58.276Z,4.35
2019-03-15T15:45:25.541Z,3.52
2019-03-15T15:47:52.809Z,3.20
2019-03-15T15:50:20.078Z,3.77
2019-03-15T15:52:47.432Z,3.33
2019-03-15T15:55:15.072Z,4.37
2019-03-15T15:57:42.352Z,3.15
2019-03-15T16:00:11.056Z,3.70
2019-03-15T16:02:38.318Z,4.25
2019-03-15T16:05:08.555Z,3.30
2019-03-15T16:07:34.860Z,3.15
2019-03-15T16:10:02.157Z,3.83
2019-03-15T16:12:29.504Z,3.52
2019-03-15T16:14:56.759Z,3.60
2019-03-15T16:17:24.034Z,3.40
2019-03-15T16:19:51.313Z,3.40
2019-03-15T16:22:18.588Z,3.47
2019-03-15T16:24:45.868Z,2.77
2019-03-15T16:27:13.165Z,3.70
2019-03-15T16:29:40.445Z,3.12
2019-03-15T16:32:07.739Z,3.25
2019-03-15T16:34:35.037Z,2.83
2019-03-15T16:37:02.367Z,3.87
2019-03-15T16:39:29.643Z,2.55
2019-03-15T16:41:57.080Z,3.65
2019-03-15T16:44:24.353Z,3.08
2019-03-15T16:46:51.646Z,2.33
2019-03-15T16:49:18.943Z,4.35
2019-03-15T16:51:46.347Z,3.47
2019-03-15T16:54:13.622Z,2.75
2019-03-15T16:56:40.909Z,3.60
2019-03-15T16:59:08.226Z,3.15
2019-03-15T17:01:35.525Z,3.25
2019-03-15T17:04:02.783Z,2.72
2019-03-15T17:06:30.076Z,2.75
2019-03-15T17:08:57.344Z,3.40
2019-03-15T17:11:24.643Z,3.15
2019-03-15T17:13:51.910Z,2.83
2019-03-15T17:16:19.337Z,2.83
2019-03-15T17:18:46.753Z,4.20
2019-03-15T17:21:14.095Z,8.88
2019-03-15T17:23:41.463Z,11.50
2019-03-15T17:26:08.752Z,10.35
2019-03-15T17:28:36.171Z,5.50
2019-03-15T17:31:09.654Z,2.47
2019-03-15T17:33:32.505Z,2.58
2019-03-15T17:35:59.773Z,3.20
2019-03-15T17:38:27.073Z,2.67
2019-03-15T17:40:54.335Z,3.17
2019-03-15T17:43:21.649Z,2.83
2019-03-15T17:45:48.929Z,2.60
2019-03-15T17:48:16.219Z,1.95
2019-03-15T17:50:43.490Z,2.35
2019-03-15T17:53:10.777Z,2.90
2019-03-15T17:55:38.079Z,2.85
2019-03-15T17:58:05.362Z,2.22
2019-03-15T18:00:35.805Z,2.17
2019-03-15T18:03:03.156Z,1.85
2019-03-15T18:05:30.512Z,1.98
2019-03-15T18:07:57.856Z,1.42
2019-03-15T18:10:25.461Z,3.33
2019-03-15T18:12:52.738Z,2.08
2019-03-15T18:15:20.001Z,2.00
2019-03-15T18:17:47.280Z,2.50
2019-03-15T18:20:14.635Z,2.58
2019-03-15T18:22:41.891Z,1.72
2019-03-15T18:25:09.662Z,2.40
2019-03-15T18:27:37.015Z,2.65
2019-03-15T18:30:05.832Z,2.05
2019-03-15T18:32:33.118Z,2.72
2019-03-15T18:35:00.397Z,2.40
2019-03-15T18:37:27.754Z,2.33
2019-03-15T18:39:55.225Z,2.10
2019-03-15T18:42:22.617Z,1.82
2019-03-15T18:44:49.922Z,2.05
2019-03-15T18:47:17.245Z,2.33
2019-03-15T18:49:44.734Z,2.12
2019-03-15T18:52:11.995Z,2.00
2019-03-15T18:54:39.251Z,2.20
2019-03-15T18:57:07.250Z,2.60
2019-03-15T18:59:39.962Z,2.65
2019-03-15T19:02:03.569Z,3.02
2019-03-15T19:04:30.908Z,2.37
2019-03-15T19:06:58.199Z,3.40
2019-03-15T19:09:25.495Z,3.10
2019-03-15T19:11:53.210Z,2.37
2019-03-15T19:14:20.508Z,2.87
2019-03-15T19:16:47.786Z,1.98
2019-03-15T19:19:15.098Z,1.65
2019-03-15T19:21:42.432Z,2.85
2019-03-15T19:24:09.694Z,2.72
2019-03-15T19:26:36.967Z,2.37
2019-03-15T19:29:04.374Z,3.02
2019-03-15T19:31:31.775Z,3.58
2019-03-15T19:33:59.038Z,4.15
2019-03-15T19:36:26.429Z,3.52
2019-03-15T19:38:53.779Z,1.87
2019-03-15T19:41:21.043Z,2.58
2019-03-15T19:43:48.332Z,1.90
2019-03-15T19:46:15.899Z,2.92
2019-03-15T19:48:43.256Z,2.77
2019-03-15T19:51:10.573Z,2.45
2019-03-15T19:53:37.854Z,3.12
2019-03-15T19:56:06.984Z,3.62
2019-03-15T19:58:34.283Z,3.40
2019-03-15T20:01:01.600Z,4.22
2019-03-15T20:03:28.864Z,2.52
2019-03-15T20:05:56.146Z,2.92
2019-03-15T20:08:23.418Z,2.67
2019-03-15T20:10:50.720Z,1.72
2019-03-15T20:13:18.015Z,2.20
2019-03-15T20:15:45.288Z,2.80
2019-03-15T20:18:12.583Z,2.52
2019-03-15T20:20:39.858Z,2.62
2019-03-15T20:23:07.129Z,3.05
2019-03-15T20:25:34.398Z,3.27
2019-03-15T20:28:04.131Z,3.02
2019-03-15T20:30:30.758Z,2.67
2019-03-15T20:32:58.025Z,3.60
2019-03-15T20:35:25.435Z,2.40
2019-03-15T20:37:52.697Z,2.10
2019-03-15T20:40:19.985Z,2.30
2019-03-15T20:42:47.267Z,2.55
2019-03-15T20:45:16.072Z,2.15
2019-03-15T20:47:43.360Z,3.10
2019-03-15T20:50:11.798Z,2.77
2019-03-15T20:52:39.087Z,2.12
2019-03-15T20:55:07.231Z,1.98
2019-03-15T20:57:34.585Z,2.30
2019-03-15T21:00:01.852Z,2.83
2019-03-15T21:02:29.114Z,2.90
2019-03-15T21:04:56.415Z,2.52
2019-03-15T21:07:23.673Z,2.17
2019-03-15T21:09:50.957Z,2.42
2019-03-15T21:12:18.386Z,2.98
2019-03-15T21:14:45.653Z,2.00
2019-03-15T21:17:13.339Z,1.57
2019-03-15T21:19:40.612Z,2.25
2019-03-15T21:22:07.879Z,2.70
2019-03-15T21:24:35.138Z,3.62
2019-03-15T21:27:02.662Z,2.65
2019-03-15T21:29:30.021Z,2.05
2019-03-15T21:31:57.336Z,2.45
2019-03-15T21:34:24.666Z,3.02
2019-03-15T21:36:51.954Z,3.02
2019-03-15T21:39:19.240Z,2.67
2019-03-15T21:41:46.510Z,1.95
2019-03-15T21:44:17.105Z,2.62
2019-03-15T21:46:42.766Z,2.47
2019-03-15T21:49:10.893Z,2.10
2019-03-15T21:51:38.180Z,2.33
2019-03-15T21:54:05.461Z,2.02
2019-03-15T21:56:32.757Z,2.72
2019-03-15T21:59:00.050Z,2.10
2019-03-15T22:01:27.318Z,3.02
2019-03-15T22:03:54.616Z,2.05
2019-03-15T22:06:22.125Z,2.60
2019-03-15T22:08:49.462Z,1.90
2019-03-15T22:11:21.438Z,1.52
2019-03-15T22:13:45.737Z,2.35
2019-03-15T22:16:13.035Z,1.82
2019-03-15T22:18:40.330Z,1.80
2019-03-15T22:21:07.803Z,1.72
2019-03-15T22:23:35.241Z,1.92
2019-03-15T22:26:02.542Z,1.80
2019-03-15T22:28:29.837Z,2.05
2019-03-15T22:30:57.106Z,1.47
2019-03-15T22:33:24.378Z,2.20
2019-03-15T22:35:51.657Z,1.40
2019-03-15T22:38:26.339Z,1.45
2019-03-15T22:40:47.933Z,1.30
2019-03-15T22:43:15.192Z,1.72
2019-03-15T22:45:42.452Z,1.65
2019-03-15T22:48:09.745Z,1.82
2019-03-15T22:50:37.011Z,1.30
2019-03-15T22:53:04.365Z,1.50
2019-03-15T22:55:31.629Z,1.47
2019-03-15T22:58:00.276Z,1.35
2019-03-15T23:00:37.816Z,1.17
2019-03-15T23:03:05.395Z,2.35
2019-03-15T23:05:32.765Z,1.40
2019-03-15T23:08:00.037Z,1.40
2019-03-15T23:10:27.330Z,1.10
2019-03-15T23:12:54.598Z,1.50
2019-03-15T23:15:21.856Z,1.12
2019-03-15T23:17:49.146Z,1.10
2019-03-15T23:20:16.419Z,1.25
2019-03-15T23:22:43.695Z,1.02
2019-03-15T23:25:11.056Z,1.37
2019-03-15T23:27:38.426Z,1.75
2019-03-15T23:30:07.228Z,1.30
2019-03-15T23:32:34.483Z,1.07
2019-03-15T23:35:01.758Z,1.12
2019-03-15T23:37:29.021Z,1.20
2019-03-15T23:39:56.308Z,20.68
2019-03-15T23:42:23.850Z,18.40
2019-03-15T23:44:51.153Z,2.55
2019-03-15T23:47:18.418Z,1.35
2019-03-15T23:49:45.701Z,1.60
2019-03-15T23:52:12.983Z,1.42
2019-03-15T23:54:40.316Z,1.27
2019-03-15T23:57:07.643Z,0.82
2019-03-15T23:59:34.933Z,1.15
